Abraham, West Virginia
Current Conditions -  °F | °C
As of 7:51 PM on Friday 28 Nov 2014 (Local Time) from KBKW Reporting Station
Clear Clear  
Wind Chill: 17°   Ceiling: Unl
Heat Index: 24°   Visibility: 10mi
Dew Point: 17°   Wind: 6mph
Humidity: 75%   Direction: 160°SSE
Pressure: 30.17"   Gusts: NA
Location:  37.6906°N, 81.1704°W
Report Text: KBKW 290051Z AUTO 16005KT 10SM CLR M04/M08 A3017 RMK AO2 SLP259 T10441083
Loading
Personal Weather Stations






























Interactive Weather Map New forecast layout! Learn more

10-Day Weather Forecast

Advertisements
Track Severe Weather on mobile